Time;durP1;ratioP1;P1;durP2;ratioP2;P2;SDS_P1;SDS_P2;PMS_P1;PMS_P2;Temp;Humidity;BMP_temperature;BMP_pressure;BME280_temperature;BME280_humidity;BME280_pressure;Samples;Min_cycle;Max_cycle;Signal;HPM_P1;HPM_P2
2022/03/11 00:00:04;;;;;;;8.98;4.43;;;;;;;-2.39;46.04;100270.22;4993567;28;20050;-72
2022/03/11 00:02:51;;;;;;;6.95;4.05;;;;;;;-2.16;45.55;100277.25;4993338;28;20378;-73
2022/03/11 00:05:37;;;;;;;9.40;4.40;;;;;;;-2.17;45.64;100278.13;4992329;28;20050;-73
2022/03/11 00:08:22;;;;;;;8.52;4.10;;;;;;;-1.83;45.00;100280.94;5006469;28;20038;-73
2022/03/11 00:11:07;;;;;;;7.07;4.05;;;;;;;-2.15;45.40;100279.84;4978682;28;20046;-72
2022/03/11 00:13:52;;;;;;;10.60;3.92;;;;;;;-1.96;45.22;100272.28;5005784;28;20042;-72
2022/03/11 00:16:37;;;;;;;10.52;4.38;;;;;;;-2.11;45.24;100273.91;5005767;28;20046;-73
2022/03/11 00:19:22;;;;;;;7.80;4.25;;;;;;;-2.28;46.13;100273.75;5008204;28;20042;-72
2022/03/11 00:22:07;;;;;;;8.82;4.57;;;;;;;-2.13;45.80;100273.03;5008676;28;20046;-71
2022/03/11 00:24:53;;;;;;;6.35;3.75;;;;;;;-2.15;45.22;100276.41;4980270;28;20050;-71
2022/03/11 00:27:39;;;;;;;10.60;4.05;;;;;;;-2.12;45.33;100272.16;4992738;28;20054;-72
2022/03/11 00:30:24;;;;;;;9.13;4.03;;;;;;;-2.38;46.10;100266.81;4992931;28;20042;-72
2022/03/11 00:33:09;;;;;;;7.18;4.40;;;;;;;-2.38;46.22;100269.38;5005604;28;20047;-71
2022/03/11 00:35:54;;;;;;;8.18;4.22;;;;;;;-2.26;46.40;100266.94;4993279;28;20466;-71
2022/03/11 00:38:40;;;;;;;7.60;3.92;;;;;;;-2.26;46.29;100266.94;4979572;28;20046;-71
2022/03/11 00:41:25;;;;;;;8.80;4.28;;;;;;;-2.26;46.29;100268.63;5006461;28;20066;-72
2022/03/11 00:44:10;;;;;;;8.93;3.88;;;;;;;-1.99;45.89;100272.25;4992693;28;20042;-71
2022/03/11 00:46:55;;;;;;;8.57;4.43;;;;;;;-2.30;46.27;100267.72;4993078;28;20406;-71
2022/03/11 00:49:40;;;;;;;7.80;4.20;;;;;;;-2.08;45.82;100259.34;4992448;28;20046;-72
2022/03/11 00:52:25;;;;;;;8.63;3.75;;;;;;;-2.14;46.02;100276.41;5005601;28;20046;-71
2022/03/11 00:55:11;;;;;;;7.45;4.18;;;;;;;-2.37;46.56;100268.53;4992353;28;20054;-72
2022/03/11 00:57:56;;;;;;;6.82;3.90;;;;;;;-2.34;46.31;100268.56;5005477;28;20050;-71
2022/03/11 01:00:41;;;;;;;6.15;3.85;;;;;;;-2.44;46.57;100266.75;4992375;28;20474;-72
2022/03/11 01:03:26;;;;;;;8.30;3.80;;;;;;;-2.63;47.18;100261.47;4992969;28;20042;-71
2022/03/11 01:06:11;;;;;;;7.93;4.22;;;;;;;-2.52;46.93;100267.56;4992362;28;20058;-72
2022/03/11 01:08:57;;;;;;;10.48;4.68;;;;;;;-2.33;46.20;100266.88;4992544;28;20046;-71
2022/03/11 01:11:42;;;;;;;8.05;4.75;;;;;;;-2.52;46.58;100269.25;4992443;28;20414;-71
2022/03/11 01:14:27;;;;;;;8.50;4.55;;;;;;;-2.56;46.86;100270.09;4992512;28;20042;-71
2022/03/11 01:17:12;;;;;;;9.00;4.28;;;;;;;-2.23;46.20;100274.66;5004501;28;20046;-71
2022/03/11 01:19:57;;;;;;;9.88;4.25;;;;;;;-1.97;45.38;100270.56;4992604;28;20046;-71
2022/03/11 01:22:43;;;;;;;9.95;4.97;;;;;;;-2.12;45.56;100279.88;4991046;28;20042;-71
2022/03/11 01:25:28;;;;;;;7.90;4.30;;;;;;;-2.24;46.20;100272.91;4978011;28;20042;-72
2022/03/11 01:28:13;;;;;;;8.98;4.82;;;;;;;-2.31;46.28;100272.84;4992373;28;20038;-72
2022/03/11 01:30:59;;;;;;;8.38;4.50;;;;;;;-2.27;46.30;100269.47;4996294;28;20046;-70
2022/03/11 01:33:47;;;;;;;7.75;4.03;;;;;;;-2.45;46.84;100265.03;4982461;28;20476;-72
2022/03/11 01:36:32;;;;;;;8.15;4.43;;;;;;;-2.61;47.24;100259.75;4956972;28;20039;-72
2022/03/11 01:39:17;;;;;;;7.65;4.32;;;;;;;-2.26;46.58;100269.50;4957543;29;20051;-71
2022/03/11 01:42:03;;;;;;;11.07;4.43;;;;;;;-2.32;46.64;100269.44;4969805;28;20059;-72
2022/03/11 01:44:48;;;;;;;11.45;4.20;;;;;;;-2.58;47.49;100266.63;4976049;28;20414;-72
2022/03/11 01:47:33;;;;;;;11.88;4.53;;;;;;;-2.25;46.43;100270.34;4976659;28;20394;-71
2022/03/11 01:50:20;;;;;;;9.18;4.18;;;;;;;-2.47;46.96;100270.16;4976518;28;20051;-72
2022/03/11 01:53:07;;;;;;;8.18;4.72;;;;;;;-2.78;47.59;100269.84;4976405;28;20051;-72
2022/03/11 01:55:52;;;;;;;7.40;4.53;;;;;;;-2.59;47.27;100270.91;4961911;28;20478;-72
2022/03/11 01:58:38;;;;;;;10.55;4.78;;;;;;;-2.90;48.21;100280.84;4976305;28;20502;-71
2022/03/11 02:01:24;;;;;;;7.30;4.50;;;;;;;-2.80;48.02;100274.97;4988802;28;20042;-72
2022/03/11 02:04:10;;;;;;;9.18;3.83;;;;;;;-2.57;47.54;100281.19;4975544;28;20047;-72
2022/03/11 02:06:55;;;;;;;10.80;5.15;;;;;;;-2.85;48.31;100287.75;4975320;28;20051;-73
2022/03/11 02:09:40;;;;;;;7.97;4.53;;;;;;;-2.82;47.84;100280.94;4976192;28;20383;-71
2022/03/11 02:12:30;;;;;;;11.68;4.55;;;;;;;-2.84;48.05;100280.94;4974639;28;20122;-71
2022/03/11 02:15:15;;;;;;;7.40;4.78;;;;;;;-2.81;48.21;100283.53;4976376;28;20061;-70
2022/03/11 02:18:00;;;;;;;12.45;4.80;;;;;;;-2.82;48.06;100286.91;4976228;28;20051;-70
2022/03/11 02:20:48;;;;;;;10.23;5.07;;;;;;;-2.55;47.56;100285.50;4975326;28;20047;-72
2022/03/11 02:23:41;;;;;;;8.90;4.53;;;;;;;-2.85;47.89;100279.19;4974953;28;20418;-71
2022/03/11 02:26:29;;;;;;;9.25;4.35;;;;;;;-2.94;48.52;100281.66;4988477;28;20039;-72
2022/03/11 02:29:14;;;;;;;9.32;5.20;;;;;;;-2.46;47.20;100282.13;4950389;28;20039;-72
2022/03/11 02:32:01;;;;;;;8.82;4.28;;;;;;;-2.44;47.18;100275.31;4968794;28;20392;-71
2022/03/11 02:34:47;;;;;;;10.68;4.32;;;;;;;-2.66;47.86;100282.81;4955418;29;20043;-71
2022/03/11 02:37:33;;;;;;;7.47;3.83;;;;;;;-2.31;47.01;100280.56;4972500;28;20046;-71
2022/03/11 02:40:18;;;;;;;9.05;3.85;;;;;;;-2.09;46.37;100281.63;4961866;28;20382;-71
2022/03/11 02:43:03;;;;;;;7.20;4.10;;;;;;;-3.00;48.50;100275.59;4968921;28;20047;-70
2022/03/11 02:45:48;;;;;;;8.30;4.00;;;;;;;-3.16;48.85;100276.25;5007948;28;20046;-70
2022/03/11 02:48:34;;;;;;;8.80;4.47;;;;;;;-2.98;48.62;100275.63;4994893;28;20398;-71
2022/03/11 02:51:19;;;;;;;6.80;4.07;;;;;;;-2.62;47.67;100284.56;4994354;28;20050;-70
2022/03/11 02:54:04;;;;;;;8.27;3.60;;;;;;;-2.89;48.41;100285.97;5007603;28;20486;-71
2022/03/11 02:56:49;;;;;;;7.95;4.03;;;;;;;-2.84;48.05;100288.63;5007486;28;20542;-72
2022/03/11 02:59:34;;;;;;;8.57;4.03;;;;;;;-3.10;48.94;100276.38;4975171;28;20047;-71
2022/03/11 03:02:19;;;;;;;8.80;3.95;;;;;;;-3.21;49.32;100273.66;4987394;28;20050;-71
2022/03/11 03:05:05;;;;;;;7.53;4.07;;;;;;;-3.43;50.05;100282.78;4974915;28;20418;-72
2022/03/11 03:07:51;;;;;;;9.25;3.90;;;;;;;-3.27;49.60;100277.00;4974548;28;20475;-71
2022/03/11 03:10:36;;;;;;;7.90;4.45;;;;;;;-3.15;49.57;100278.84;4987849;28;20050;-71
2022/03/11 03:13:22;;;;;;;9.45;4.50;;;;;;;-3.50;50.45;100285.25;4974643;28;20055;-71
2022/03/11 03:16:06;;;;;;;8.90;4.22;;;;;;;-3.32;50.07;100295.72;4987478;28;20051;-72
2022/03/11 03:18:51;;;;;;;9.77;4.38;;;;;;;-3.00;49.03;100288.44;4960057;28;20058;-72
2022/03/11 03:21:36;;;;;;;8.75;4.53;;;;;;;-3.19;49.23;100292.50;4960160;28;20055;-71
2022/03/11 03:24:22;;;;;;;11.10;4.38;;;;;;;-3.16;49.31;100283.97;4973196;28;20483;-72
2022/03/11 03:27:07;;;;;;;6.40;3.83;;;;;;;-2.77;48.24;100286.97;4973613;28;20475;-71
2022/03/11 03:29:52;;;;;;;7.63;4.07;;;;;;;-2.88;48.56;100298.00;4972519;28;20050;-71
2022/03/11 03:32:41;;;;;;;7.93;3.67;;;;;;;-3.12;49.23;100298.56;4973783;28;20054;-71
2022/03/11 03:35:27;;;;;;;8.13;4.35;;;;;;;-3.32;49.82;100306.84;4973007;28;20070;-71
2022/03/11 03:38:12;;;;;;;9.13;3.80;;;;;;;-3.04;49.30;100293.50;4973898;28;20043;-71
2022/03/11 03:40:57;;;;;;;7.22;4.13;;;;;;;-3.04;49.23;100298.66;4985987;28;20824;-71
2022/03/11 03:43:42;;;;;;;8.57;4.10;;;;;;;-3.06;49.48;100306.31;4959652;28;20038;-71
2022/03/11 03:46:27;;;;;;;11.60;4.03;;;;;;;-2.76;48.87;100293.84;4973996;28;20494;-71
2022/03/11 03:49:14;;;;;;;10.00;4.63;;;;;;;-3.04;49.41;100308.91;4986850;28;20047;-71
2022/03/11 03:51:59;;;;;;;7.53;4.28;;;;;;;-3.06;49.58;100301.19;4986266;28;20046;-71
2022/03/11 03:54:44;;;;;;;7.90;4.30;;;;;;;-2.79;48.84;100304.06;4973487;28;20038;-71
2022/03/11 03:57:31;;;;;;;10.35;4.70;;;;;;;-3.23;49.72;100299.28;4959339;28;20475;-71
2022/03/11 04:00:16;;;;;;;8.93;4.32;;;;;;;-3.24;50.09;100309.50;4958335;28;20055;-71
2022/03/11 04:03:01;;;;;;;8.75;4.93;;;;;;;-3.40;50.43;100301.63;4962231;28;20039;-71
2022/03/11 04:05:46;;;;;;;7.78;4.88;;;;;;;-3.15;49.98;100306.22;4959239;28;20043;-71
2022/03/11 04:08:31;;;;;;;9.05;4.93;;;;;;;-3.42;50.62;100307.56;4961690;28;20471;-71
2022/03/11 04:11:17;;;;;;;11.57;5.13;;;;;;;-3.49;51.21;100304.03;4953825;28;20055;-71
2022/03/11 04:14:03;;;;;;;9.88;5.22;;;;;;;-3.04;50.04;100317.47;4939673;29;20043;-72
2022/03/11 04:16:49;;;;;;;9.50;4.70;;;;;;;-3.08;49.92;100322.53;4967386;28;20055;-73
2022/03/11 04:19:34;;;;;;;12.63;4.95;;;;;;;-2.91;49.71;100317.59;4954772;28;20047;-72
2022/03/11 04:22:19;;;;;;;7.55;4.18;;;;;;;-3.31;50.78;100323.94;4967062;28;20043;-71
2022/03/11 04:25:05;;;;;;;9.40;5.15;;;;;;;-3.40;51.04;100326.38;4954399;28;20051;-71
2022/03/11 04:27:50;;;;;;;9.23;4.72;;;;;;;-3.66;51.92;100324.31;4967328;28;20047;-71
2022/03/11 04:30:38;;;;;;;9.32;5.03;;;;;;;-3.63;51.81;100322.66;4966559;28;20395;-71
2022/03/11 04:33:23;;;;;;;8.05;4.20;;;;;;;-3.44;51.26;100324.63;4954563;28;20051;-71
2022/03/11 04:36:10;;;;;;;10.93;4.38;;;;;;;-3.54;51.62;100333.91;4954907;28;20047;-71
2022/03/11 04:38:56;;;;;;;10.60;4.55;;;;;;;-3.27;50.92;100327.41;4953670;29;20047;-71
2022/03/11 04:41:42;;;;;;;12.18;4.75;;;;;;;-3.15;50.32;100325.00;4949590;28;20051;-71
2022/03/11 04:44:27;;;;;;;8.40;4.53;;;;;;;-3.42;50.85;100326.38;4961488;28;20048;-71
2022/03/11 04:47:12;;;;;;;10.55;5.00;;;;;;;-3.45;50.96;100336.59;4935177;29;20055;-70
2022/03/11 04:49:57;;;;;;;8.85;4.38;;;;;;;-3.51;51.33;100324.53;4935198;29;20503;-72
2022/03/11 04:52:43;;;;;;;8.27;4.63;;;;;;;-3.61;51.98;100330.38;4935094;29;20154;-71
2022/03/11 04:55:28;;;;;;;10.20;4.22;;;;;;;-3.53;51.26;100341.59;4961141;28;20047;-71
2022/03/11 04:58:14;;;;;;;7.50;3.80;;;;;;;-3.25;50.25;100333.44;4935201;29;20476;-72
2022/03/11 05:00:59;;;;;;;8.63;3.72;;;;;;;-3.34;50.92;100329.91;4961477;28;20047;-71
2022/03/11 05:03:52;;;;;;;7.28;4.38;;;;;;;-3.15;50.05;100340.38;4937366;29;20399;-72
2022/03/11 05:06:38;;;;;;;9.98;4.20;;;;;;;-2.91;49.35;100330.44;4946490;28;20047;-71
2022/03/11 05:09:23;;;;;;;10.98;4.30;;;;;;;-3.20;49.57;100323.25;5000538;28;20495;-72
2022/03/11 05:12:09;;;;;;;8.35;3.63;;;;;;;-2.86;49.38;100329.63;4972180;28;20404;-70
2022/03/11 05:14:54;;;;;;;7.22;3.80;;;;;;;-3.08;50.06;100320.81;4969888;28;20127;-69
2022/03/11 05:17:39;;;;;;;8.18;4.05;;;;;;;-3.15;49.96;100314.75;4965998;28;20046;-69
2022/03/11 05:20:25;;;;;;;9.45;4.03;;;;;;;-3.28;50.60;100320.59;4983440;28;20051;-69
2022/03/11 05:23:10;;;;;;;7.35;3.83;;;;;;;-3.32;50.95;100340.19;4956543;29;20043;-69
2022/03/11 05:25:56;;;;;;;7.72;3.72;;;;;;;-3.11;50.54;100331.03;4969636;28;20043;-70
2022/03/11 05:28:43;;;;;;;9.52;3.97;;;;;;;-2.77;49.43;100322.88;4982877;28;20039;-69
2022/03/11 05:31:28;;;;;;;7.93;4.82;;;;;;;-3.10;49.91;100332.78;4983373;28;20048;-69
2022/03/11 05:34:13;;;;;;;10.10;3.95;;;;;;;-2.98;49.45;100326.94;4952798;29;20060;-68
2022/03/11 05:36:59;;;;;;;8.05;4.03;;;;;;;-2.70;49.25;100327.25;4939009;29;20483;-69
2022/03/11 05:39:45;;;;;;;6.47;3.60;;;;;;;-3.05;49.93;100337.97;4953857;28;20040;-68
2022/03/11 05:42:30;;;;;;;6.72;3.38;;;;;;;-2.57;48.75;100327.38;4951132;28;20047;-63
2022/03/11 05:45:15;;;;;;;7.43;3.80;;;;;;;-2.32;47.50;100333.63;4956812;28;20039;-66
2022/03/11 05:48:00;;;;;;;7.57;3.90;;;;;;;-2.64;47.95;100332.44;4956903;28;20055;-67
2022/03/11 05:50:45;;;;;;;7.55;4.00;;;;;;;-2.66;48.65;100335.84;4957087;29;20043;-69
2022/03/11 05:53:30;;;;;;;9.25;3.92;;;;;;;-2.55;48.20;100341.97;4957470;28;20399;-71
2022/03/11 05:56:16;;;;;;;6.80;3.58;;;;;;;-2.45;47.75;100342.06;4957630;28;20059;-70
2022/03/11 05:59:01;;;;;;;8.50;3.90;;;;;;;-2.58;48.57;100347.06;4984104;28;20047;-70
2022/03/11 06:01:46;;;;;;;10.73;4.18;;;;;;;-2.01;47.20;100351.03;4976615;28;20042;-72
2022/03/11 06:04:31;;;;;;;9.18;4.13;;;;;;;-1.67;45.76;100346.16;4976395;28;20467;-70
2022/03/11 06:07:16;;;;;;;7.68;3.92;;;;;;;-1.55;45.62;100367.66;4979073;28;20063;-71
2022/03/11 06:10:01;;;;;;;9.30;3.90;;;;;;;-1.74;45.96;100354.66;4989921;28;20046;-70
2022/03/11 06:12:47;;;;;;;10.68;4.90;;;;;;;-2.11;47.39;100348.38;4976117;28;20055;-69
2022/03/11 06:15:32;;;;;;;8.70;4.60;;;;;;;-2.40;47.12;100351.50;4960754;28;20047;-71
2022/03/11 06:18:18;;;;;;;8.65;4.32;;;;;;;-1.84;46.08;100356.28;4974838;28;20402;-71
2022/03/11 06:21:03;;;;;;;10.07;4.38;;;;;;;-1.63;45.94;100365.88;4972889;28;20058;-73
2022/03/11 06:23:48;;;;;;;7.65;3.85;;;;;;;-1.16;44.30;100355.88;4987450;28;20039;-73
2022/03/11 06:26:33;;;;;;;7.68;3.97;;;;;;;-0.59;43.35;100362.13;4947066;28;20414;-72
2022/03/11 06:29:18;;;;;;;8.13;3.92;;;;;;;-0.35;43.22;100359.59;4975383;28;20046;-76
2022/03/11 06:32:04;;;;;;;6.68;3.42;;;;;;;0.38;43.51;100358.81;4970570;28;20043;-68
2022/03/11 06:34:49;;;;;;;11.52;4.32;;;;;;;-0.96;43.00;100378.28;4964818;28;20047;-68
2022/03/11 06:37:33;;;;;;;8.07;4.00;;;;;;;-0.83;43.30;100353.47;4977882;28;20046;-64
2022/03/11 06:40:21;;;;;;;12.93;5.30;;;;;;;-0.99;42.71;100370.53;4971644;28;20039;-65
2022/03/11 06:43:06;;;;;;;7.68;4.07;;;;;;;-0.79;43.27;100378.38;4962744;28;20387;-67
2022/03/11 06:45:51;;;;;;;7.65;3.80;;;;;;;-0.28;41.91;100363.94;4963535;28;20063;-65
2022/03/11 06:48:37;;;;;;;11.27;4.15;;;;;;;-0.55;47.03;100360.41;4964143;28;20043;-62
2022/03/11 06:51:22;;;;;;;9.02;4.28;;;;;;;0.69;42.92;100371.63;4964357;28;20054;-67
2022/03/11 06:54:07;;;;;;;12.27;4.95;;;;;;;0.09;41.05;100383.72;4968389;28;20039;-66
2022/03/11 06:56:53;;;;;;;8.45;4.38;;;;;;;-0.02;40.69;100368.25;4962177;28;20047;-67
2022/03/11 06:59:38;;;;;;;10.88;4.35;;;;;;;0.18;40.96;100370.81;4972741;28;20047;-66
2022/03/11 07:02:23;;;;;;;9.85;4.25;;;;;;;0.68;39.10;100382.81;4955601;29;20039;-64
2022/03/11 07:05:09;;;;;;;8.80;4.07;;;;;;;0.57;39.43;100383.69;4955618;29;20051;-65
2022/03/11 07:07:54;;;;;;;6.75;3.63;;;;;;;1.65;37.76;100375.56;4946816;28;20046;-67
2022/03/11 07:10:40;;;;;;;11.13;4.40;;;;;;;1.36;37.62;100384.34;4965860;28;20039;-66
2022/03/11 07:13:24;;;;;;;8.20;4.40;;;;;;;1.03;37.81;100387.03;4962653;28;20039;-67
2022/03/11 07:16:10;;;;;;;8.98;4.22;;;;;;;0.75;38.62;100405.19;4976090;28;20463;-67
2022/03/11 07:18:56;;;;;;;7.35;3.65;;;;;;;-0.07;37.85;100393.16;4969345;28;20047;-70
2022/03/11 07:21:41;;;;;;;7.82;3.70;;;;;;;0.88;38.08;100390.53;4968568;28;20039;-66
2022/03/11 07:24:27;;;;;;;7.13;3.45;;;;;;;1.14;36.69;100394.78;4966689;28;20035;-70
2022/03/11 07:27:13;;;;;;;7.80;3.50;;;;;;;1.40;35.70;100401.56;4965768;28;20046;-66
2022/03/11 07:29:58;;;;;;;8.35;3.45;;;;;;;1.69;35.77;100394.50;4963241;28;20042;-70
2022/03/11 07:32:46;;;;;;;5.72;3.80;;;;;;;1.92;35.47;100384.03;4961709;28;20378;-70
2022/03/11 07:35:31;;;;;;;6.90;3.55;;;;;;;1.29;36.14;100382.66;4959897;28;20043;-68
2022/03/11 07:38:17;;;;;;;5.28;3.17;;;;;;;0.52;37.56;100382.88;4963502;28;20043;-68
2022/03/11 07:41:03;;;;;;;5.50;2.92;;;;;;;1.16;36.79;100408.50;4979472;28;20047;-67
2022/03/11 07:43:48;;;;;;;5.38;2.65;;;;;;;1.60;36.10;100392.81;4964453;28;20043;-64
2022/03/11 07:46:35;;;;;;;7.53;3.63;;;;;;;1.30;35.96;100379.19;4968832;28;20043;-68
2022/03/11 07:49:22;;;;;;;8.48;3.92;;;;;;;0.96;36.95;100387.94;4969752;28;20046;-68
2022/03/11 07:52:14;;;;;;;6.07;3.15;;;;;;;1.62;35.96;100403.19;4965658;28;20043;-70
2022/03/11 07:54:59;;;;;;;6.10;2.78;;;;;;;1.89;35.40;100411.63;4983959;28;20054;-69
2022/03/11 07:57:45;;;;;;;6.30;3.47;;;;;;;0.88;36.83;100389.66;5006065;28;20046;-67
2022/03/11 08:00:30;;;;;;;9.65;4.38;;;;;;;1.12;37.26;100386.16;5006169;28;20046;-70
2022/03/11 08:03:16;;;;;;;7.18;3.78;;;;;;;3.01;34.39;100396.84;4974815;28;20046;-71
2022/03/11 08:06:01;;;;;;;7.22;3.58;;;;;;;2.85;33.21;100398.75;4974165;28;20391;-68
2022/03/11 08:08:47;;;;;;;8.85;3.75;;;;;;;2.93;33.28;100394.38;4959180;28;20047;-70
2022/03/11 08:11:33;;;;;;;6.90;3.40;;;;;;;2.87;32.93;100402.19;4976694;28;20046;-68
2022/03/11 08:14:19;;;;;;;6.57;3.67;;;;;;;2.96;35.39;100399.50;4993317;28;20054;-52
2022/03/11 08:17:07;;;;;;;7.82;4.25;;;;;;;3.39;32.36;100379.16;4993166;28;20443;-52
2022/03/11 08:19:52;;;;;;;8.15;3.72;;;;;;;3.90;30.88;100378.44;4993120;28;20050;-49
2022/03/11 08:22:37;;;;;;;6.95;3.47;;;;;;;3.64;30.62;100394.38;4978257;28;20042;-51
2022/03/11 08:25:26;;;;;;;7.93;4.13;;;;;;;3.10;30.87;100388.97;5005751;28;20558;-54
2022/03/11 08:28:13;;;;;;;9.27;3.88;;;;;;;4.01;29.95;100377.41;4993197;28;20038;-49
2022/03/11 08:30:58;;;;;;;6.55;3.40;;;;;;;3.49;30.40;100382.47;5002127;28;20046;-49
2022/03/11 08:33:43;;;;;;;5.90;3.17;;;;;;;3.79;30.25;100372.53;4961042;28;20047;-48
2022/03/11 08:36:28;;;;;;;10.13;3.75;;;;;;;4.39;29.63;100383.72;4989826;28;20042;-48
2022/03/11 08:39:13;;;;;;;11.77;4.22;;;;;;;4.74;30.07;100386.59;4995210;28;20038;-48
2022/03/11 08:41:58;;;;;;;7.75;3.38;;;;;;;4.46;29.56;100397.44;4977807;28;20051;-52
2022/03/11 08:44:43;;;;;;;9.68;4.18;;;;;;;4.46;29.31;100388.78;4988097;28;20035;-48
2022/03/11 08:47:29;;;;;;;6.50;3.78;;;;;;;5.08;28.29;100392.00;5005336;28;20054;-48
2022/03/11 08:50:14;;;;;;;7.97;3.58;;;;;;;5.49;28.61;100382.50;4999469;28;20039;-52
2022/03/11 08:53:00;;;;;;;7.07;3.30;;;;;;;10.38;43.32;100381.28;4987216;28;20042;-50
2022/03/11 08:55:45;;;;;;;8.30;4.00;;;;;;;6.90;27.79;100382.59;5017992;28;20050;-50
2022/03/11 08:58:30;;;;;;;6.90;3.70;;;;;;;6.07;28.28;100385.59;4992732;28;20146;-51
2022/03/11 09:01:17;;;;;;;6.43;4.00;;;;;;;5.53;28.58;100376.34;4992507;28;20038;-49
2022/03/11 09:04:02;;;;;;;6.78;3.88;;;;;;;6.45;31.37;100381.19;4992524;28;20050;-48
2022/03/11 09:06:47;;;;;;;9.40;3.63;;;;;;;5.75;28.05;100370.66;4992521;28;20038;-49
2022/03/11 09:09:33;;;;;;;7.22;3.50;;;;;;;7.56;26.76;100369.44;4992736;28;20050;-47
2022/03/11 09:12:18;;;;;;;9.50;3.25;;;;;;;5.82;27.98;100376.59;4977900;28;20050;-50
2022/03/11 09:15:05;;;;;;;8.02;3.78;;;;;;;5.10;28.16;100369.44;4960543;28;20038;-51
2022/03/11 09:17:51;;;;;;;6.85;3.30;;;;;;;5.34;27.98;100385.44;4992749;28;20043;-50
2022/03/11 09:20:37;;;;;;;5.32;2.97;;;;;;;4.74;28.04;100381.38;4981288;28;20051;-49
2022/03/11 09:23:22;;;;;;;5.65;2.83;;;;;;;4.78;28.25;100372.63;4955360;28;20047;-50
2022/03/11 09:26:07;;;;;;;6.43;3.53;;;;;;;6.20;25.95;100368.78;4957494;28;20051;-48
2022/03/11 09:28:52;;;;;;;6.30;3.33;;;;;;;5.52;26.84;100366.84;4992231;28;20394;-48
2022/03/11 09:31:37;;;;;;;7.00;3.60;;;;;;;7.00;25.72;100359.75;4992604;28;20047;-49
2022/03/11 09:34:26;;;;;;;7.55;3.97;;;;;;;5.65;26.70;100363.97;4998700;28;20047;-48
2022/03/11 09:37:11;;;;;;;7.47;3.80;;;;;;;5.59;27.21;100359.75;4954528;28;20466;-48
2022/03/11 09:39:56;;;;;;;7.55;3.80;;;;;;;6.19;26.77;100363.59;4953010;29;20043;-50
2022/03/11 09:42:43;;;;;;;6.15;3.35;;;;;;;6.48;26.05;100365.47;4953822;29;20059;-49
2022/03/11 09:45:28;;;;;;;6.85;3.75;;;;;;;6.89;25.64;100365.25;4964893;28;20039;-48
2022/03/11 09:48:16;;;;;;;6.60;3.92;;;;;;;5.57;27.21;100368.47;4973370;28;20042;-47
2022/03/11 09:51:02;;;;;;;19.48;9.90;;;;;;;5.66;33.31;100358.72;4976873;28;20471;-47
2022/03/11 09:53:47;;;;;;;8.80;3.88;;;;;;;6.65;27.68;100359.84;4952303;28;20043;-50
2022/03/11 09:56:35;;;;;;;8.57;3.42;;;;;;;7.62;25.23;100348.41;4956965;28;20047;-49
2022/03/11 09:59:20;;;;;;;7.10;3.60;;;;;;;6.49;25.14;100361.13;4966421;28;20390;-48
2022/03/11 10:02:12;;;;;;;6.88;3.35;;;;;;;5.68;26.98;100350.88;5008860;28;20042;-48
2022/03/11 10:04:57;;;;;;;6.30;3.72;;;;;;;6.75;25.22;100355.25;4995532;28;20038;-50
2022/03/11 10:07:42;;;;;;;8.13;3.53;;;;;;;6.68;25.48;100343.25;4990893;28;20046;-49
2022/03/11 10:10:28;;;;;;;6.85;3.58;;;;;;;6.59;25.97;100347.00;4976240;28;20050;-53
2022/03/11 10:13:16;;;;;;;6.63;3.35;;;;;;;7.18;33.07;100348.84;4976405;28;20487;-47
2022/03/11 10:16:16;;;;;;;9.98;3.80;;;;;;;7.19;25.36;100348.81;4976260;28;20051;-53
2022/03/11 10:19:06;;;;;;;8.68;3.72;;;;;;;7.36;25.51;100335.25;4976040;28;20039;-51
2022/03/11 10:21:56;;;;;;;9.02;3.97;;;;;;;6.63;25.87;100339.91;4975993;28;20391;-52
2022/03/11 10:24:41;;;;;;;7.25;3.28;;;;;;;7.26;25.72;100333.84;4960726;28;20062;-52
2022/03/11 10:27:26;;;;;;;9.93;3.42;;;;;;;8.25;24.49;100332.47;4975772;28;20047;-53
2022/03/11 10:30:16;;;;;;;6.70;3.38;;;;;;;7.80;23.83;100339.13;4974443;28;20050;-56
2022/03/11 10:33:05;;;;;;;7.80;3.40;;;;;;;6.92;25.35;100361.72;4974418;28;20047;-50
2022/03/11 10:35:50;;;;;;;5.43;3.00;;;;;;;6.85;25.32;100341.94;4988053;28;20113;-49
2022/03/11 10:38:36;;;;;;;6.80;3.70;;;;;;;8.76;23.71;100336.88;4975905;28;20047;-50
2022/03/11 10:41:31;;;;;;;5.35;3.22;;;;;;;9.35;22.61;100334.69;4960994;28;20046;-49
2022/03/11 10:44:34;;;;;;;6.20;3.33;;;;;;;8.23;23.79;100343.84;4975301;28;20031;-49
2022/03/11 10:47:28;;;;;;;6.32;3.20;;;;;;;6.98;25.07;100348.53;4982680;28;20055;-48
2022/03/11 10:50:16;;;;;;;7.40;3.53;;;;;;;8.83;23.75;100329.66;4954909;29;20039;-48
2022/03/11 10:53:06;;;;;;;6.93;3.85;;;;;;;9.18;23.28;100321.41;4956027;29;20044;-48
2022/03/11 10:56:03;;;;;;;6.75;3.22;;;;;;;8.94;22.60;100324.91;4955954;29;20050;-50
2022/03/11 10:58:49;;;;;;;7.95;3.78;;;;;;;9.23;22.26;100314.25;4956159;29;20047;-49
2022/03/11 11:01:36;;;;;;;7.55;3.15;;;;;;;9.17;22.46;100314.47;4954905;28;20055;-51
2022/03/11 11:04:21;;;;;;;9.38;3.75;;;;;;;8.78;22.73;100336.81;4955586;29;20043;-49
2022/03/11 11:07:07;;;;;;;6.55;3.67;;;;;;;9.22;22.81;100310.75;4941163;29;20051;-48
2022/03/11 11:09:54;;;;;;;5.93;3.45;;;;;;;8.59;22.47;100304.34;4955536;28;20048;-54
2022/03/11 11:12:41;;;;;;;5.18;3.33;;;;;;;7.11;24.34;100296.91;4955638;29;20043;-50
2022/03/11 11:15:26;;;;;;;5.68;3.40;;;;;;;7.74;24.00;100295.84;4955343;29;20042;-57
2022/03/11 11:18:13;;;;;;;5.18;2.83;;;;;;;9.12;23.56;100285.91;4954345;29;20429;-58
2022/03/11 11:20:58;;;;;;;5.55;3.10;;;;;;;9.23;22.39;100304.66;4954787;29;20039;-49
2022/03/11 11:23:43;;;;;;;7.53;3.05;;;;;;;9.55;22.17;100283.34;4955900;29;20053;-48
2022/03/11 11:26:29;;;;;;;7.65;3.20;;;;;;;8.97;23.02;100293.41;4954446;28;20047;-48
2022/03/11 11:29:20;;;;;;;10.43;3.92;;;;;;;9.33;22.40;100285.97;4955372;29;20044;-48
2022/03/11 11:32:07;;;;;;;6.97;3.63;;;;;;;8.13;22.56;100280.66;4955099;29;20043;-49
2022/03/11 11:34:52;;;;;;;6.47;3.53;;;;;;;6.36;25.08;100288.56;4954989;29;20123;-51
2022/03/11 11:37:39;;;;;;;9.00;4.10;;;;;;;8.98;23.35;100276.81;4953837;29;20043;-51
2022/03/11 11:40:34;;;;;;;3.35;2.55;;;;;;;10.26;21.33;100275.25;4954954;29;20050;-58
2022/03/11 11:43:27;;;;;;;6.10;3.33;;;;;;;10.42;20.98;100265.81;4955579;29;20047;-51
2022/03/11 11:46:16;;;;;;;5.97;3.38;;;;;;;8.41;23.11;100263.19;4957722;28;20043;-50
2022/03/11 11:49:07;;;;;;;7.05;3.15;;;;;;;10.69;21.11;100267.31;4959678;29;20039;-49
2022/03/11 11:51:56;;;;;;;7.68;3.53;;;;;;;11.00;20.80;100250.13;4958690;29;20047;-49
2022/03/11 11:54:43;;;;;;;7.13;3.92;;;;;;;9.69;21.59;100242.69;4954922;29;20039;-48
2022/03/11 11:57:36;;;;;;;5.40;3.05;;;;;;;9.73;21.40;100257.34;4954767;29;20051;-51
2022/03/11 12:00:35;;;;;;;7.53;3.30;;;;;;;10.51;20.48;100242.75;4981130;28;20058;-50
2022/03/11 12:03:20;;;;;;;6.38;3.33;;;;;;;10.17;20.56;100251.16;4954911;29;20051;-52
2022/03/11 12:06:06;;;;;;;7.80;3.03;;;;;;;10.20;20.32;100253.63;4954853;29;20043;-49
2022/03/11 12:08:51;;;;;;;6.32;3.28;;;;;;;9.27;21.40;100239.16;4968837;28;20043;-49
2022/03/11 12:11:37;;;;;;;7.05;3.33;;;;;;;10.54;20.56;100234.75;4973841;28;20419;-54
2022/03/11 12:14:22;;;;;;;8.40;3.80;;;;;;;9.33;20.69;100237.16;4973904;28;20467;-48
2022/03/11 12:17:08;;;;;;;6.05;3.33;;;;;;;10.18;20.93;100241.53;4973861;28;20047;-49
2022/03/11 12:19:54;;;;;;;4.22;2.83;;;;;;;10.58;20.63;100238.94;4974049;28;20035;-49
2022/03/11 12:23:05;;;;;;;6.47;2.88;;;;;;;11.01;19.68;100235.25;4985875;28;20061;-49
2022/03/11 12:25:57;;;;;;;6.30;3.15;;;;;;;11.03;19.73;100236.88;4973726;28;20043;-51
2022/03/11 12:28:44;;;;;;;5.00;2.22;;;;;;;11.60;19.02;100227.22;4973462;28;20027;-51
2022/03/11 12:31:30;;;;;;;5.30;2.75;;;;;;;9.68;20.26;100222.66;4973505;28;20479;-50
2022/03/11 12:34:16;;;;;;;6.32;2.85;;;;;;;10.34;20.33;100220.75;4973536;28;20047;-53
2022/03/11 12:37:00;;;;;;;5.65;2.58;;;;;;;11.14;19.65;100210.16;4973532;28;20055;-50
2022/03/11 12:39:46;;;;;;;5.45;2.75;;;;;;;10.52;19.74;100221.72;4973530;28;20047;-50
2022/03/11 12:42:41;;;;;;;8.23;2.70;;;;;;;9.87;19.37;100214.91;4973831;28;20043;-52
2022/03/11 12:45:30;;;;;;;4.43;2.45;;;;;;;9.91;19.14;100206.00;4973817;28;20043;-49
2022/03/11 12:48:21;;;;;;;8.98;2.80;;;;;;;10.44;19.11;100188.00;4973448;28;20472;-51
2022/03/11 12:51:09;;;;;;;5.47;2.80;;;;;;;10.50;19.00;100189.50;4959166;28;20042;-51
2022/03/11 12:53:54;;;;;;;6.32;2.75;;;;;;;10.66;19.39;100196.66;4973672;28;20043;-49